Kapitan Shyriagin — D6GZ2 — position and weather

sailwx.info

Track history (hours):
 
Tides and Currents Weather Stations Pressure Air Temp Water Temp Dewpoint Dewpoint Depression Visibility Wind Speed Wind Dir Waves Ship Positions

Kapitan Shyriagin

Last reported at 2017-Dec-16 12:02 UTC. Time now 2017-Dec-18 03:35 UTC.
Position N 40°56' E 028°50'.

Length 142 m; draft 3.8 m.

Type: Cargo ship. MMSI: 616999191.

Date/timePositionNaut miles runAvg speedWind from/ knotsBaromVisibWave heightAir tempDewpointWater temp
2017-Dec-16 12:02N 40°56' E 028°50'3 6.1
2017-Dec-16 11:36N 40°56' E 028°54'2 6.5
2017-Dec-16 11:19N 40°56' E 028°56'2 4.6
2017-Dec-16 10:51N 40°58' E 028°58'2 4.9
2017-Dec-16 10:30N 40°59' E 028°59'  
2017-Dec-13 20:48N 45°13' E 036°28'2 6.9
2017-Dec-13 20:27N 45°15' E 036°28'2 4.8
2017-Dec-13 20:00N 45°17' E 036°29'2 5.0
2017-Dec-13 19:30N 45°19' E 036°31'3 6.0
2017-Dec-13 19:00N 45°20' E 036°35'3 6.1
2017-Dec-13 18:30N 45°21' E 036°39'3 6.2
2017-Dec-13 18:00N 45°24' E 036°40'3 5.6
2017-Dec-13 17:30N 45°27' E 036°39'3 6.3
2017-Dec-13 17:00N 45°29' E 036°36'  
2017-Dec-11 03:19N 45°37' E 036°38'  
Track history (hours):
 
Tides and Currents Weather Stations Pressure Air Temp Water Temp Dewpoint Dewpoint Depression Visibility Wind Speed Wind Dir Waves Ship Positions

Kapitan Shyriagin

Last reported at 2017-Dec-16 12:02 UTC. Time now 2017-Dec-18 03:35 UTC.
Position N 40°56' E 028°50'.

Length 142 m; draft 3.8 m.

Type: Cargo ship. MMSI: 616999191.

Date/timePositionNaut miles runAvg speedWind from/ knotsBaromVisibWave heightAir tempDewpointWater temp
2017-Dec-16 12:02N 40°56' E 028°50'3 6.1
2017-Dec-16 11:36N 40°56' E 028°54'2 6.5
2017-Dec-16 11:19N 40°56' E 028°56'2 4.6
2017-Dec-16 10:51N 40°58' E 028°58'2 4.9
2017-Dec-16 10:30N 40°59' E 028°59'  
2017-Dec-13 20:48N 45°13' E 036°28'2 6.9
2017-Dec-13 20:27N 45°15' E 036°28'2 4.8
2017-Dec-13 20:00N 45°17' E 036°29'2 5.0
2017-Dec-13 19:30N 45°19' E 036°31'3 6.0
2017-Dec-13 19:00N 45°20' E 036°35'3 6.1
2017-Dec-13 18:30N 45°21' E 036°39'3 6.2
2017-Dec-13 18:00N 45°24' E 036°40'3 5.6
2017-Dec-13 17:30N 45°27' E 036°39'3 6.3
2017-Dec-13 17:00N 45°29' E 036°36'  
2017-Dec-11 03:19N 45°37' E 036°38'  

Dump ship's entire track history